Mindoro — SVAS8 — position and weather

sailwx.info

Track history (hours):
 
Tides and Currents Weather Stations Pressure Air Temp Water Temp Dewpoint Dewpoint Depression Visibility Wind Speed Wind Dir Waves Ship Positions

Mindoro

Last reported at 2015-Feb-11 09:33 UTC. Time now 2015-Mar-04 16:50 UTC.
Position S 30°16' E 031°00'.
Warning: this ship's position is 21 days out of date.

Length 245 m; draft 14.6 m.

Type: Tanker. MMSI: 240924000.

Date/timePositionNaut miles runAvg speedWind from/ knotsBaromVisibWave heightAir tempDewpointWater temp
2015-Feb-11 09:33S 30°16' E 031°00'1111.1
2015-Feb-11 08:33S 30°06' E 031°05'1010.2
2015-Feb-11 07:33S 29°56' E 031°07'2 2.3
2015-Feb-11 06:33S 29°54' E 031°09'3 3.0
2015-Feb-11 05:33S 29°52' E 031°11'5 5.0
2015-Feb-11 04:33S 29°49' E 031°16'5 5.2
2015-Feb-11 03:33S 29°47' E 031°21'7 6.6
2015-Feb-11 02:33S 29°43' E 031°27'1110.5
2015-Feb-11 01:33S 29°38' E 031°38'1413.6
2015-Feb-11 00:33S 29°32' E 031°52'1313.3
2015-Feb-10 23:33S 29°25' E 032°05'4112.5
2015-Feb-10 20:17S 28°55' E 032°37'912.8
2015-Feb-10 19:33S 28°48' E 032°44'1312.5
2015-Feb-10 18:33S 28°38' E 032°52'3012.8
2015-Feb-10 16:11S 28°13' E 033°13'  
Track history (hours):
 
Tides and Currents Weather Stations Pressure Air Temp Water Temp Dewpoint Dewpoint Depression Visibility Wind Speed Wind Dir Waves Ship Positions

Mindoro

Last reported at 2015-Feb-11 09:33 UTC. Time now 2015-Mar-04 16:50 UTC.
Position S 30°16' E 031°00'.
Warning: this ship's position is 21 days out of date.

Length 245 m; draft 14.6 m.

Type: Tanker. MMSI: 240924000.

Date/timePositionNaut miles runAvg speedWind from/ knotsBaromVisibWave heightAir tempDewpointWater temp
2015-Feb-11 09:33S 30°16' E 031°00'1111.1
2015-Feb-11 08:33S 30°06' E 031°05'1010.2
2015-Feb-11 07:33S 29°56' E 031°07'2 2.3
2015-Feb-11 06:33S 29°54' E 031°09'3 3.0
2015-Feb-11 05:33S 29°52' E 031°11'5 5.0
2015-Feb-11 04:33S 29°49' E 031°16'5 5.2
2015-Feb-11 03:33S 29°47' E 031°21'7 6.6
2015-Feb-11 02:33S 29°43' E 031°27'1110.5
2015-Feb-11 01:33S 29°38' E 031°38'1413.6
2015-Feb-11 00:33S 29°32' E 031°52'1313.3
2015-Feb-10 23:33S 29°25' E 032°05'4112.5
2015-Feb-10 20:17S 28°55' E 032°37'912.8
2015-Feb-10 19:33S 28°48' E 032°44'1312.5
2015-Feb-10 18:33S 28°38' E 032°52'3012.8
2015-Feb-10 16:11S 28°13' E 033°13'  

Dump ship's entire track history